Estevan, Canada
Current Conditions -  °F | °C
As of 7:00 AM on Sunday 23 Nov 2014 (Local Time) from CYEN Reporting Station
Light Snow Light Snow  
Wind Chill:   Ceiling: 1200
Heat Index: 19°   Visibility: 3mi
Dew Point: 16°   Wind: 31mph
Humidity: 86%   Direction: 310°NW
Pressure: 29.4"   Gusts: 44mph
Location:  49.14°N, 102.99°W
Report Text: CYEN 231300Z 31027G38KT 3SM -SN DRSN OVC012 M07/M09 A2940 RMK SC8 PRESRR SLP979
Loading
Personal Weather Stations






























Interactive Weather Map New forecast layout! Learn more

10-Day Weather Forecast

Advertisements
Track Severe Weather on mobile